Time;durP1;ratioP1;P1;durP2;ratioP2;P2;SDS_P1;SDS_P2;PMS_P1;PMS_P2;Temp;Humidity;BMP_temperature;BMP_pressure;BME280_temperature;BME280_humidity;BME280_pressure;Samples;Min_cycle;Max_cycle;Signal;HPM_P1;HPM_P2
2022/07/01 00:02:14;;;;;;;13.80;7.20;;;;;;;21.35;65.26;99222.78;430347;1271;142917;-60
2022/07/01 00:12:24;;;;;;;13.00;9.40;;;;;;;21.23;64.88;99221.89;431518;1271;183537;-59
2022/07/01 00:22:29;;;;;;;9.70;8.10;;;;;;;21.46;64.15;99209.69;431301;1270;142109;-60
2022/07/01 00:32:35;;;;;;;16.50;12.70;;;;;;;21.76;63.34;99202.89;430670;1270;142246;-59
2022/07/01 00:42:45;;;;;;;11.30;9.30;;;;;;;21.84;63.19;99201.41;431432;1270;142399;-59
2022/07/01 00:52:51;;;;;;;14.70;9.90;;;;;;;21.81;62.98;99195.13;432474;1270;142478;-59
2022/07/01 01:02:57;;;;;;;10.40;8.20;;;;;;;21.78;63.41;99193.80;431506;1270;142384;-59
2022/07/01 01:13:03;;;;;;;9.40;8.50;;;;;;;21.82;63.21;99184.20;431545;1270;146068;-62
2022/07/01 01:23:09;;;;;;;10.10;7.60;;;;;;;21.86;63.17;99179.98;431208;1270;143012;-62
2022/07/01 01:33:15;;;;;;;10.10;8.30;;;;;;;21.87;63.21;99177.01;431954;1270;142217;-60
2022/07/01 01:43:21;;;;;;;10.90;7.70;;;;;;;21.85;63.13;99179.89;430945;1270;143612;-62
2022/07/01 01:53:27;;;;;;;8.40;7.60;;;;;;;21.84;63.12;99179.91;431112;1270;143592;-59
2022/07/01 02:03:33;;;;;;;9.10;7.70;;;;;;;21.79;63.06;99176.84;432377;1270;142086;-59
2022/07/01 02:13:39;;;;;;;17.70;8.40;;;;;;;21.76;62.98;99176.71;431412;1270;141480;-59
2022/07/01 02:23:45;;;;;;;9.20;7.50;;;;;;;21.81;62.70;99181.42;431232;1270;143423;-59
2022/07/01 02:33:51;;;;;;;8.20;7.40;;;;;;;21.91;62.18;99180.44;431441;1270;141334;-57
2022/07/01 02:43:57;;;;;;;10.20;6.60;;;;;;;22.00;61.78;99174.93;431493;1270;142946;-58
2022/07/01 02:54:04;;;;;;;11.40;8.40;;;;;;;22.12;61.55;99172.67;430883;1270;142008;-59
2022/07/01 03:04:10;;;;;;;10.00;6.90;;;;;;;22.43;61.19;99175.81;431719;1270;142589;-59
2022/07/01 03:14:16;;;;;;;10.50;7.30;;;;;;;23.14;59.84;99175.40;430651;1270;142044;-59
2022/07/01 03:24:22;;;;;;;7.30;5.90;;;;;;;23.98;58.26;99173.27;431871;1270;145954;-57
2022/07/01 03:34:28;;;;;;;7.90;7.10;;;;;;;24.60;57.12;99176.45;431171;1270;140626;-60
2022/07/01 03:44:34;;;;;;;7.20;6.50;;;;;;;24.76;55.85;99171.27;430608;1270;141253;-58
2022/07/01 03:54:40;;;;;;;10.80;6.60;;;;;;;24.57;55.62;99166.11;432133;1270;142790;-58
2022/07/01 04:04:47;;;;;;;7.00;6.30;;;;;;;26.54;53.83;99156.46;430768;1270;140484;-58
2022/07/01 04:14:53;;;;;;;8.70;6.70;;;;;;;30.09;48.60;99152.34;436771;1270;140554;-60
2022/07/01 04:24:59;;;;;;;6.10;5.60;;;;;;;33.14;43.70;99152.48;431478;1270;140662;-60
2022/07/01 04:35:06;;;;;;;6.90;5.40;;;;;;;34.92;39.81;99154.73;430164;1269;145006;-56
2022/07/01 04:45:12;;;;;;;6.90;5.40;;;;;;;36.73;37.20;99141.04;431155;1269;142632;-63
2022/07/01 04:55:18;;;;;;;6.60;5.80;;;;;;;38.13;33.98;99129.63;434204;1270;141884;-58
2022/07/01 05:05:24;;;;;;;6.90;5.70;;;;;;;38.95;32.36;99127.27;431541;1270;142235;-59
2022/07/01 05:15:30;;;;;;;6.90;5.10;;;;;;;40.44;30.82;99125.36;431507;1269;141252;-58
2022/07/01 05:25:36;;;;;;;8.50;5.40;;;;;;;42.32;29.28;99126.73;430440;1270;140991;-57
2022/07/01 05:35:41;;;;;;;8.00;6.20;;;;;;;44.00;27.00;99131.84;430356;1269;144394;-58
2022/07/01 05:45:47;;;;;;;11.10;5.30;;;;;;;44.79;25.21;99128.98;431548;1270;141052;-59
2022/07/01 05:55:54;;;;;;;7.10;5.80;;;;;;;45.32;24.58;99127.09;430663;1270;140961;-57
2022/07/01 06:05:59;;;;;;;8.20;6.20;;;;;;;47.64;23.57;99128.56;430145;1271;142511;-61
2022/07/01 06:16:06;;;;;;;6.90;6.20;;;;;;;47.63;21.88;99123.10;430549;1271;141671;-59
2022/07/01 06:26:12;;;;;;;6.90;6.30;;;;;;;47.60;21.78;99118.68;430278;1271;140737;-60
2022/07/01 06:36:18;;;;;;;6.30;5.90;;;;;;;49.15;20.66;99131.63;430797;1270;141397;-60
2022/07/01 06:46:24;;;;;;;7.00;5.70;;;;;;;49.13;20.28;99129.38;430469;1270;140970;-59
2022/07/01 06:56:30;;;;;;;7.30;6.80;;;;;;;50.36;19.74;99118.56;430089;1272;140914;-60
2022/07/01 07:06:36;;;;;;;7.60;6.90;;;;;;;51.52;18.49;99112.66;430477;1271;143193;-61
2022/07/01 07:16:42;;;;;;;8.60;8.10;;;;;;;51.46;18.25;99112.63;430653;1270;141764;-59
2022/07/01 07:26:48;;;;;;;11.20;10.10;;;;;;;53.01;17.65;99114.16;429863;1271;141435;-61
2022/07/01 07:36:54;;;;;;;11.60;10.80;;;;;;;53.86;16.75;99110.77;431072;1268;141019;-60
2022/07/01 07:47:00;;;;;;;10.40;9.70;;;;;;;53.58;16.56;99107.70;430473;1271;142982;-60
2022/07/01 07:57:07;;;;;;;8.20;6.30;;;;;;;50.91;17.31;99112.21;430810;1271;199044;-59
2022/07/01 08:07:13;;;;;;;8.90;8.00;;;;;;;44.34;21.33;99110.95;431870;1269;140279;-59
2022/07/01 08:17:19;;;;;;;8.80;8.10;;;;;;;40.43;25.05;99118.73;430290;1270;141661;-60
2022/07/01 08:27:25;;;;;;;8.90;8.10;;;;;;;38.54;27.51;99122.23;430991;1270;142473;-60
2022/07/01 08:37:31;;;;;;;10.20;9.00;;;;;;;36.62;30.28;99123.67;430763;1272;141030;-58
2022/07/01 08:47:52;;;;;;;9.30;8.70;;;;;;;35.70;32.03;99110.93;430423;1270;146904;-60
2022/07/01 08:57:58;;;;;;;8.70;7.90;;;;;;;36.00;32.36;99102.43;433055;1271;142021;-59
2022/07/01 09:08:07;;;;;;;9.50;8.40;;;;;;;35.67;32.98;99103.13;432037;1270;140773;-60
2022/07/01 09:18:15;;;;;;;12.00;8.90;;;;;;;35.78;33.42;99106.54;434264;1270;140567;-58
2022/07/01 09:28:23;;;;;;;9.60;8.70;;;;;;;35.31;33.80;99105.52;431870;1270;144712;-60
2022/07/01 09:38:29;;;;;;;9.00;8.20;;;;;;;35.18;34.63;99100.59;431714;1270;141334;-61
2022/07/01 09:48:47;;;;;;;11.60;8.30;;;;;;;35.22;34.44;99099.43;433112;1270;142411;-58
2022/07/01 09:58:53;;;;;;;8.40;7.70;;;;;;;34.99;34.59;99100.47;430929;1270;374204;-60
2022/07/01 10:09:03;;;;;;;;;;;;;;;34.94;34.60;99095.27;430640;1270;142110;-61
2022/07/01 10:19:29;;;;;;;8.90;7.30;;;;;;;34.76;34.66;99085.45;431372;1270;126572;-61
2022/07/01 10:29:38;;;;;;;8.60;8.00;;;;;;;34.88;35.06;99080.92;430357;1271;142275;-61
2022/07/01 10:40:00;;;;;;;8.00;7.30;;;;;;;34.75;34.86;99074.21;431635;1270;141918;-61
2022/07/01 10:50:09;;;;;;;8.00;7.20;;;;;;;34.60;34.88;99066.48;431491;1270;140467;-57
2022/07/01 11:00:34;;;;;;;7.60;6.90;;;;;;;34.70;34.39;99061.67;432460;1270;140297;-59
2022/07/01 11:10:42;;;;;;;6.60;6.10;;;;;;;34.81;33.80;99044.94;432279;1270;144645;-57
2022/07/01 11:20:48;;;;;;;6.20;5.30;;;;;;;35.02;32.54;99032.17;432450;1270;139972;-61
2022/07/01 11:31:02;;;;;;;10.60;6.40;;;;;;;35.13;30.97;99015.75;432141;1270;142073;-60
2022/07/01 11:41:10;;;;;;;9.50;6.40;;;;;;;35.24;29.93;99004.21;430942;1270;142690;-61
2022/07/01 11:51:18;;;;;;;7.10;5.90;;;;;;;35.26;30.10;98986.15;431843;1270;140065;-59
2022/07/01 12:01:30;;;;;;;6.00;5.40;;;;;;;35.41;29.83;98969.95;431661;1270;141019;-59
2022/07/01 12:11:36;;;;;;;8.50;5.90;;;;;;;35.37;29.08;98950.25;430845;1270;140541;-60
2022/07/01 12:21:57;;;;;;;7.90;5.70;;;;;;;35.58;28.67;98951.63;439204;1270;140717;-61
2022/07/01 12:32:05;;;;;;;6.60;5.60;;;;;;;35.69;29.34;98948.98;440983;1270;161398;-60
2022/07/01 12:42:22;;;;;;;7.20;6.60;;;;;;;35.60;28.59;98942.05;434896;1270;140308;-61
2022/07/01 12:52:29;;;;;;;7.60;6.80;;;;;;;35.50;29.18;98931.42;432848;1270;140864;-60
2022/07/01 13:02:35;;;;;;;6.90;6.30;;;;;;;35.65;28.72;98931.77;431478;1270;141097;-57
2022/07/01 13:12:41;;;;;;;6.40;5.50;;;;;;;35.73;28.67;98925.43;431304;1270;141177;-60
2022/07/01 13:22:48;;;;;;;5.80;5.30;;;;;;;35.87;27.81;98931.52;430927;1271;141831;-60
2022/07/01 13:32:54;;;;;;;7.50;5.60;;;;;;;35.85;27.42;98933.45;436131;1270;141741;-60
2022/07/01 13:43:00;;;;;;;5.40;4.90;;;;;;;35.68;27.34;98932.08;431423;1270;140386;-59
2022/07/01 13:53:07;;;;;;;6.40;5.80;;;;;;;35.54;27.56;98930.77;434312;1270;141142;-60
2022/07/01 14:03:13;;;;;;;6.50;6.00;;;;;;;35.41;27.07;98920.55;430995;1271;140765;-60
2022/07/01 14:13:20;;;;;;;5.30;4.80;;;;;;;35.35;27.35;98901.81;431271;1271;141070;-60
2022/07/01 14:23:26;;;;;;;5.90;5.40;;;;;;;35.34;27.58;98881.29;432121;1270;140876;-59
2022/07/01 14:33:37;;;;;;;8.20;5.90;;;;;;;35.35;27.63;98872.78;431046;1271;140827;-62
2022/07/01 14:43:44;;;;;;;5.60;5.10;;;;;;;35.24;27.48;98871.69;431426;1270;139782;-60
2022/07/01 14:53:50;;;;;;;4.90;4.20;;;;;;;35.15;27.64;98871.13;432821;1271;141215;-61
2022/07/01 15:04:02;;;;;;;5.60;5.10;;;;;;;35.04;27.77;98881.36;431791;1271;140884;-58
2022/07/01 15:14:06;;;;;;;;;;;;;;;35.04;27.82;98883.42;430455;1271;141004;-60
2022/07/01 15:24:12;;;;;;;5.70;4.70;;;;;;;35.19;28.09;98880.39;431418;1271;127774;-61
2022/07/01 15:34:17;;;;;;;;;;;;;;;35.11;28.41;98876.04;432233;1271;140638;-61
2022/07/01 15:44:22;;;;;;;6.80;6.10;;;;;;;35.08;29.25;98873.27;431895;1271;147658;-60
2022/07/01 15:54:28;;;;;;;8.70;5.50;;;;;;;34.82;29.88;98893.85;431813;1271;140443;-60
2022/07/01 16:04:36;;;;;;;7.40;6.20;;;;;;;34.85;30.54;98913.23;432862;1271;140171;-60
2022/07/01 16:14:43;;;;;;;4.80;4.10;;;;;;;35.03;30.33;98908.73;437728;1271;140976;-59
2022/07/01 16:24:50;;;;;;;4.50;4.20;;;;;;;34.80;29.09;98908.02;431039;1271;140639;-60
2022/07/01 16:34:57;;;;;;;6.30;4.90;;;;;;;34.40;29.26;98910.23;434676;1271;140402;-60
2022/07/01 16:45:06;;;;;;;16.20;8.80;;;;;;;33.93;30.59;98905.77;432695;1271;141281;-60
2022/07/01 16:55:14;;;;;;;15.80;8.90;;;;;;;32.04;36.84;98908.98;432893;1272;140890;-64
2022/07/01 17:05:20;;;;;;;13.80;9.30;;;;;;;29.82;41.76;98865.41;431014;1272;141818;-60
2022/07/01 17:15:27;;;;;;;9.20;8.40;;;;;;;28.44;45.56;98890.50;431890;1270;142034;-59
2022/07/01 17:25:37;;;;;;;11.60;9.30;;;;;;;27.40;48.29;99106.88;431266;1271;140785;-61
2022/07/01 17:35:48;;;;;;;11.20;9.00;;;;;;;26.51;50.90;99156.23;430552;1271;181095;-59
2022/07/01 17:45:54;;;;;;;16.70;10.10;;;;;;;26.03;51.63;99258.70;431623;1271;141134;-60
2022/07/01 17:56:01;;;;;;;11.70;9.20;;;;;;;25.57;53.65;99221.46;432033;1271;141069;-59
2022/07/01 18:06:09;;;;;;;16.10;10.70;;;;;;;25.35;55.38;99186.16;431850;1270;140658;-59
2022/07/01 18:16:25;;;;;;;11.30;9.40;;;;;;;25.21;56.27;99205.58;431542;1270;141869;-60
2022/07/01 18:26:36;;;;;;;12.30;10.20;;;;;;;25.16;56.84;99163.52;432028;1270;141608;-59
2022/07/01 18:36:50;;;;;;;7.90;7.10;;;;;;;24.85;57.78;99142.04;432825;1271;141600;-57
2022/07/01 18:46:56;;;;;;;10.40;8.30;;;;;;;24.81;57.81;99183.70;434462;1270;140936;-59
2022/07/01 18:57:02;;;;;;;11.00;8.50;;;;;;;24.85;57.76;99240.97;432876;1267;142045;-58
2022/07/01 19:07:09;;;;;;;14.40;11.20;;;;;;;24.84;59.07;99266.36;438173;1270;141614;-60
2022/07/01 19:17:16;;;;;;;14.30;13.10;;;;;;;24.63;60.72;99273.16;432319;1270;141359;-61
2022/07/01 19:27:22;;;;;;;16.00;12.70;;;;;;;24.42;61.96;99268.31;431265;1269;141620;-60
2022/07/01 19:37:28;;;;;;;11.30;10.10;;;;;;;24.38;62.01;99286.48;431627;1270;141047;-59
2022/07/01 19:47:34;;;;;;;11.00;8.80;;;;;;;24.48;60.86;99329.56;430822;1271;142068;-60
2022/07/01 19:57:40;;;;;;;9.50;8.60;;;;;;;24.44;60.27;99341.35;432723;1270;141717;-60
2022/07/01 20:07:46;;;;;;;10.10;8.50;;;;;;;24.19;60.16;99345.23;432503;1269;141595;-60
2022/07/01 20:17:52;;;;;;;9.20;7.80;;;;;;;23.95;60.54;99368.83;430648;1270;142081;-60
2022/07/01 20:27:59;;;;;;;8.30;7.00;;;;;;;23.85;60.99;99425.78;434078;1270;141401;-60
2022/07/01 20:38:05;;;;;;;8.20;7.50;;;;;;;23.58;61.71;99455.65;431121;1268;141170;-59
2022/07/01 20:48:10;;;;;;;8.80;8.00;;;;;;;23.39;62.19;99456.43;431449;1270;142106;-61
2022/07/01 20:58:16;;;;;;;7.50;7.00;;;;;;;23.18;62.74;99478.56;431672;1271;141559;-60
2022/07/01 21:08:22;;;;;;;8.00;7.30;;;;;;;22.98;63.34;99463.98;432231;1270;144944;-61
2022/07/01 21:18:28;;;;;;;6.90;6.30;;;;;;;22.80;63.63;99497.88;431555;1269;142877;-60
2022/07/01 21:28:34;;;;;;;7.50;6.80;;;;;;;22.99;63.25;99525.39;432170;1270;140557;-60
2022/07/01 21:38:44;;;;;;;8.10;7.20;;;;;;;22.99;62.75;99525.02;431074;1270;140667;-60
2022/07/01 21:48:53;;;;;;;7.90;7.00;;;;;;;22.70;63.25;99574.42;431657;1270;141867;-61
2022/07/01 21:59:02;;;;;;;8.70;7.80;;;;;;;22.43;63.88;99606.41;431506;1270;307634;-60
2022/07/01 22:09:08;;;;;;;8.80;7.90;;;;;;;22.15;64.61;99620.21;432981;1267;141992;-60
2022/07/01 22:19:18;;;;;;;5.60;5.10;;;;;;;22.15;64.66;99625.52;431950;1269;140879;-59
2022/07/01 22:29:25;;;;;;;4.70;4.30;;;;;;;21.97;64.32;99643.63;431837;1270;161917;-60
2022/07/01 22:39:33;;;;;;;5.50;5.00;;;;;;;21.41;65.19;99602.64;431909;1270;141805;-62
2022/07/01 22:49:49;;;;;;;5.80;4.10;;;;;;;20.97;66.95;99610.27;431915;1269;141111;-60
2022/07/01 23:00:02;;;;;;;6.30;4.70;;;;;;;20.67;67.84;99632.96;432170;1270;142435;-60
2022/07/01 23:10:13;;;;;;;4.60;4.20;;;;;;;20.47;68.57;99660.18;433228;1270;141852;-60
2022/07/01 23:20:20;;;;;;;5.90;4.00;;;;;;;20.23;69.31;99673.45;430946;1270;141575;-59
2022/07/01 23:30:26;;;;;;;6.00;5.30;;;;;;;20.12;69.82;99674.42;431098;1270;141637;-59
2022/07/01 23:40:32;;;;;;;5.50;5.00;;;;;;;19.95;70.59;99661.92;431468;1269;141279;-59
2022/07/01 23:50:39;;;;;;;6.00;5.40;;;;;;;20.17;70.76;99679.71;433800;1270;140914;-59
